sensor_id;sensor_type;location;lat;lon;timestamp;P1;durP1;ratioP1;P2;durP2;ratioP2
73100;SDS011;61288;53.446;-2.266;2022-07-29T00:00:06;9.23;;;1.98;;
73100;SDS011;61288;53.446;-2.266;2022-07-29T00:02:33;6.55;;;1.90;;
73100;SDS011;61288;53.446;-2.266;2022-07-29T00:04:59;7.68;;;1.98;;
73100;SDS011;61288;53.446;-2.266;2022-07-29T00:07:25;6.82;;;1.70;;
73100;SDS011;61288;53.446;-2.266;2022-07-29T00:09:51;5.85;;;2.03;;
73100;SDS011;61288;53.446;-2.266;2022-07-29T00:12:16;7.78;;;2.08;;
73100;SDS011;61288;53.446;-2.266;2022-07-29T00:14:43;7.85;;;2.08;;
73100;SDS011;61288;53.446;-2.266;2022-07-29T00:17:09;6.88;;;1.83;;
73100;SDS011;61288;53.446;-2.266;2022-07-29T00:19:34;9.02;;;2.03;;
73100;SDS011;61288;53.446;-2.266;2022-07-29T00:22:00;5.47;;;1.95;;
73100;SDS011;61288;53.446;-2.266;2022-07-29T00:24:26;8.27;;;2.00;;
73100;SDS011;61288;53.446;-2.266;2022-07-29T00:26:52;6.28;;;1.90;;
73100;SDS011;61288;53.446;-2.266;2022-07-29T00:29:18;7.07;;;2.03;;
73100;SDS011;61288;53.446;-2.266;2022-07-29T00:31:44;7.43;;;2.15;;
73100;SDS011;61288;53.446;-2.266;2022-07-29T00:34:11;8.20;;;2.20;;
73100;SDS011;61288;53.446;-2.266;2022-07-29T00:36:55;5.75;;;2.13;;
73100;SDS011;61288;53.446;-2.266;2022-07-29T00:39:21;6.72;;;1.92;;
73100;SDS011;61288;53.446;-2.266;2022-07-29T00:41:47;6.25;;;2.08;;
73100;SDS011;61288;53.446;-2.266;2022-07-29T00:44:14;6.20;;;1.90;;
73100;SDS011;61288;53.446;-2.266;2022-07-29T00:46:39;10.32;;;1.98;;
73100;SDS011;61288;53.446;-2.266;2022-07-29T00:49:05;5.93;;;1.80;;
73100;SDS011;61288;53.446;-2.266;2022-07-29T00:51:32;8.00;;;2.25;;
73100;SDS011;61288;53.446;-2.266;2022-07-29T00:54:01;6.57;;;1.73;;
73100;SDS011;61288;53.446;-2.266;2022-07-29T00:56:32;4.07;;;1.67;;
73100;SDS011;61288;53.446;-2.266;2022-07-29T00:58:59;7.95;;;1.70;;
73100;SDS011;61288;53.446;-2.266;2022-07-29T01:01:25;5.90;;;2.08;;
73100;SDS011;61288;53.446;-2.266;2022-07-29T01:03:51;6.85;;;1.92;;
73100;SDS011;61288;53.446;-2.266;2022-07-29T01:06:18;5.68;;;1.90;;
73100;SDS011;61288;53.446;-2.266;2022-07-29T01:08:45;4.85;;;1.77;;
73100;SDS011;61288;53.446;-2.266;2022-07-29T01:11:16;5.05;;;1.80;;
73100;SDS011;61288;53.446;-2.266;2022-07-29T01:13:43;5.20;;;1.75;;
73100;SDS011;61288;53.446;-2.266;2022-07-29T01:16:12;8.80;;;1.90;;
73100;SDS011;61288;53.446;-2.266;2022-07-29T01:18:44;8.20;;;2.10;;
73100;SDS011;61288;53.446;-2.266;2022-07-29T01:21:30;8.13;;;1.88;;
73100;SDS011;61288;53.446;-2.266;2022-07-29T01:24:23;8.10;;;1.77;;
73100;SDS011;61288;53.446;-2.266;2022-07-29T01:29:32;5.13;;;1.63;;
73100;SDS011;61288;53.446;-2.266;2022-07-29T01:32:14;5.78;;;1.60;;
73100;SDS011;61288;53.446;-2.266;2022-07-29T01:35:08;5.55;;;1.80;;
73100;SDS011;61288;53.446;-2.266;2022-07-29T01:37:52;6.63;;;1.80;;
73100;SDS011;61288;53.446;-2.266;2022-07-29T01:40:45;6.30;;;1.83;;
73100;SDS011;61288;53.446;-2.266;2022-07-29T01:43:18;4.95;;;1.63;;
73100;SDS011;61288;53.446;-2.266;2022-07-29T01:45:47;6.57;;;1.67;;
73100;SDS011;61288;53.446;-2.266;2022-07-29T01:48:19;6.40;;;1.55;;
73100;SDS011;61288;53.446;-2.266;2022-07-29T01:50:49;6.70;;;1.65;;
73100;SDS011;61288;53.446;-2.266;2022-07-29T01:54:02;8.20;;;1.85;;
73100;SDS011;61288;53.446;-2.266;2022-07-29T01:56:11;4.95;;;1.45;;
73100;SDS011;61288;53.446;-2.266;2022-07-29T01:58:39;5.47;;;1.52;;
73100;SDS011;61288;53.446;-2.266;2022-07-29T02:01:06;7.72;;;1.55;;
73100;SDS011;61288;53.446;-2.266;2022-07-29T02:03:35;7.22;;;1.50;;
73100;SDS011;61288;53.446;-2.266;2022-07-29T02:06:02;4.93;;;1.33;;
73100;SDS011;61288;53.446;-2.266;2022-07-29T02:08:32;4.53;;;1.50;;
73100;SDS011;61288;53.446;-2.266;2022-07-29T02:10:59;3.58;;;1.50;;
73100;SDS011;61288;53.446;-2.266;2022-07-29T02:13:27;6.20;;;1.60;;
73100;SDS011;61288;53.446;-2.266;2022-07-29T02:15:55;5.18;;;1.40;;
73100;SDS011;61288;53.446;-2.266;2022-07-29T02:18:24;4.68;;;1.50;;
73100;SDS011;61288;53.446;-2.266;2022-07-29T02:20:53;4.47;;;1.50;;
73100;SDS011;61288;53.446;-2.266;2022-07-29T02:23:22;5.85;;;1.50;;
73100;SDS011;61288;53.446;-2.266;2022-07-29T02:25:53;3.55;;;1.50;;
73100;SDS011;61288;53.446;-2.266;2022-07-29T02:28:25;2.45;;;1.20;;
73100;SDS011;61288;53.446;-2.266;2022-07-29T02:30:53;4.97;;;1.58;;
73100;SDS011;61288;53.446;-2.266;2022-07-29T02:33:23;6.00;;;1.40;;
73100;SDS011;61288;53.446;-2.266;2022-07-29T02:35:50;4.13;;;1.40;;
73100;SDS011;61288;53.446;-2.266;2022-07-29T02:38:17;5.60;;;1.30;;
73100;SDS011;61288;53.446;-2.266;2022-07-29T02:41:03;4.13;;;1.33;;
73100;SDS011;61288;53.446;-2.266;2022-07-29T02:43:33;7.38;;;1.63;;
73100;SDS011;61288;53.446;-2.266;2022-07-29T02:46:00;5.43;;;1.40;;
73100;SDS011;61288;53.446;-2.266;2022-07-29T02:51:05;6.00;;;1.23;;
73100;SDS011;61288;53.446;-2.266;2022-07-29T02:53:34;5.05;;;1.65;;
73100;SDS011;61288;53.446;-2.266;2022-07-29T02:56:04;5.70;;;1.30;;
73100;SDS011;61288;53.446;-2.266;2022-07-29T02:58:38;2.95;;;1.17;;
73100;SDS011;61288;53.446;-2.266;2022-07-29T03:01:08;5.20;;;1.40;;
73100;SDS011;61288;53.446;-2.266;2022-07-29T03:03:38;4.00;;;1.20;;
73100;SDS011;61288;53.446;-2.266;2022-07-29T03:06:12;5.80;;;1.60;;
73100;SDS011;61288;53.446;-2.266;2022-07-29T03:08:40;4.90;;;1.27;;
73100;SDS011;61288;53.446;-2.266;2022-07-29T03:11:07;3.58;;;1.25;;
73100;SDS011;61288;53.446;-2.266;2022-07-29T03:13:34;3.45;;;1.20;;
73100;SDS011;61288;53.446;-2.266;2022-07-29T03:16:00;3.13;;;1.23;;
73100;SDS011;61288;53.446;-2.266;2022-07-29T03:18:27;4.50;;;1.40;;
73100;SDS011;61288;53.446;-2.266;2022-07-29T03:20:53;5.75;;;1.38;;
73100;SDS011;61288;53.446;-2.266;2022-07-29T03:23:20;4.68;;;1.38;;
73100;SDS011;61288;53.446;-2.266;2022-07-29T03:25:49;5.80;;;1.70;;
73100;SDS011;61288;53.446;-2.266;2022-07-29T03:28:15;5.03;;;1.60;;
73100;SDS011;61288;53.446;-2.266;2022-07-29T03:30:41;7.32;;;1.70;;
73100;SDS011;61288;53.446;-2.266;2022-07-29T03:33:07;8.45;;;1.60;;
73100;SDS011;61288;53.446;-2.266;2022-07-29T03:35:33;5.85;;;1.60;;
73100;SDS011;61288;53.446;-2.266;2022-07-29T03:37:58;5.80;;;1.50;;
73100;SDS011;61288;53.446;-2.266;2022-07-29T03:40:30;7.22;;;1.67;;
73100;SDS011;61288;53.446;-2.266;2022-07-29T03:42:59;8.07;;;1.80;;
73100;SDS011;61288;53.446;-2.266;2022-07-29T03:45:29;4.85;;;1.52;;
73100;SDS011;61288;53.446;-2.266;2022-07-29T03:47:57;4.25;;;1.60;;
73100;SDS011;61288;53.446;-2.266;2022-07-29T03:50:27;7.35;;;1.92;;
73100;SDS011;61288;53.446;-2.266;2022-07-29T03:52:55;4.70;;;1.67;;
73100;SDS011;61288;53.446;-2.266;2022-07-29T03:55:22;6.03;;;1.50;;
73100;SDS011;61288;53.446;-2.266;2022-07-29T03:57:48;5.30;;;1.65;;
73100;SDS011;61288;53.446;-2.266;2022-07-29T04:00:15;4.60;;;1.40;;
73100;SDS011;61288;53.446;-2.266;2022-07-29T04:02:41;6.15;;;1.85;;
73100;SDS011;61288;53.446;-2.266;2022-07-29T04:05:13;3.80;;;1.60;;
73100;SDS011;61288;53.446;-2.266;2022-07-29T04:07:43;6.70;;;1.63;;
73100;SDS011;61288;53.446;-2.266;2022-07-29T04:10:10;3.45;;;1.50;;
73100;SDS011;61288;53.446;-2.266;2022-07-29T04:12:36;5.13;;;2.33;;
73100;SDS011;61288;53.446;-2.266;2022-07-29T04:15:05;6.65;;;1.77;;
73100;SDS011;61288;53.446;-2.266;2022-07-29T04:17:32;4.63;;;1.60;;
73100;SDS011;61288;53.446;-2.266;2022-07-29T04:19:57;4.85;;;1.80;;
73100;SDS011;61288;53.446;-2.266;2022-07-29T04:22:23;5.18;;;1.85;;
73100;SDS011;61288;53.446;-2.266;2022-07-29T04:24:49;8.30;;;2.00;;
73100;SDS011;61288;53.446;-2.266;2022-07-29T04:27:14;6.28;;;1.90;;
73100;SDS011;61288;53.446;-2.266;2022-07-29T04:29:40;6.32;;;1.92;;
73100;SDS011;61288;53.446;-2.266;2022-07-29T04:32:06;4.88;;;1.70;;
73100;SDS011;61288;53.446;-2.266;2022-07-29T04:34:31;5.95;;;1.55;;
73100;SDS011;61288;53.446;-2.266;2022-07-29T04:36:57;5.47;;;1.90;;
73100;SDS011;61288;53.446;-2.266;2022-07-29T04:39:23;5.35;;;1.70;;
73100;SDS011;61288;53.446;-2.266;2022-07-29T04:41:50;4.78;;;1.60;;
73100;SDS011;61288;53.446;-2.266;2022-07-29T04:44:16;5.75;;;1.88;;
73100;SDS011;61288;53.446;-2.266;2022-07-29T04:46:41;4.38;;;1.90;;
73100;SDS011;61288;53.446;-2.266;2022-07-29T04:49:07;7.55;;;2.00;;
73100;SDS011;61288;53.446;-2.266;2022-07-29T04:51:33;10.10;;;2.10;;
73100;SDS011;61288;53.446;-2.266;2022-07-29T04:53:59;5.03;;;1.90;;
73100;SDS011;61288;53.446;-2.266;2022-07-29T04:56:24;18.92;;;4.30;;
73100;SDS011;61288;53.446;-2.266;2022-07-29T04:58:50;7.05;;;2.28;;
73100;SDS011;61288;53.446;-2.266;2022-07-29T05:01:16;6.75;;;1.88;;
73100;SDS011;61288;53.446;-2.266;2022-07-29T05:03:41;4.32;;;1.90;;
73100;SDS011;61288;53.446;-2.266;2022-07-29T05:06:07;7.80;;;2.05;;
73100;SDS011;61288;53.446;-2.266;2022-07-29T05:08:33;5.03;;;1.92;;
73100;SDS011;61288;53.446;-2.266;2022-07-29T05:10:59;6.75;;;1.73;;
73100;SDS011;61288;53.446;-2.266;2022-07-29T05:13:24;6.97;;;2.00;;
73100;SDS011;61288;53.446;-2.266;2022-07-29T05:15:50;6.97;;;1.70;;
73100;SDS011;61288;53.446;-2.266;2022-07-29T05:18:15;4.55;;;1.75;;
73100;SDS011;61288;53.446;-2.266;2022-07-29T05:20:41;5.15;;;1.70;;
73100;SDS011;61288;53.446;-2.266;2022-07-29T05:23:07;6.05;;;1.60;;
73100;SDS011;61288;53.446;-2.266;2022-07-29T05:25:33;3.95;;;1.58;;
73100;SDS011;61288;53.446;-2.266;2022-07-29T05:27:59;4.97;;;1.60;;
73100;SDS011;61288;53.446;-2.266;2022-07-29T05:30:24;6.63;;;1.90;;
73100;SDS011;61288;53.446;-2.266;2022-07-29T05:32:50;5.82;;;1.80;;
73100;SDS011;61288;53.446;-2.266;2022-07-29T05:35:16;7.53;;;1.88;;
73100;SDS011;61288;53.446;-2.266;2022-07-29T05:37:42;6.43;;;1.83;;
73100;SDS011;61288;53.446;-2.266;2022-07-29T05:40:08;5.70;;;1.85;;
73100;SDS011;61288;53.446;-2.266;2022-07-29T05:42:35;5.40;;;1.90;;
73100;SDS011;61288;53.446;-2.266;2022-07-29T05:45:01;6.32;;;2.20;;
73100;SDS011;61288;53.446;-2.266;2022-07-29T05:47:28;4.78;;;1.70;;
73100;SDS011;61288;53.446;-2.266;2022-07-29T05:49:53;5.63;;;1.88;;
73100;SDS011;61288;53.446;-2.266;2022-07-29T05:52:19;5.85;;;1.80;;
73100;SDS011;61288;53.446;-2.266;2022-07-29T05:54:45;7.90;;;1.90;;
73100;SDS011;61288;53.446;-2.266;2022-07-29T05:59:46;4.35;;;1.77;;
73100;SDS011;61288;53.446;-2.266;2022-07-29T06:02:13;4.88;;;1.63;;
73100;SDS011;61288;53.446;-2.266;2022-07-29T06:04:39;7.93;;;2.15;;
73100;SDS011;61288;53.446;-2.266;2022-07-29T06:07:04;5.63;;;1.88;;
73100;SDS011;61288;53.446;-2.266;2022-07-29T06:09:31;10.80;;;2.40;;
73100;SDS011;61288;53.446;-2.266;2022-07-29T06:11:57;7.82;;;2.00;;
73100;SDS011;61288;53.446;-2.266;2022-07-29T06:14:23;10.05;;;2.20;;
73100;SDS011;61288;53.446;-2.266;2022-07-29T06:16:50;7.28;;;2.00;;
73100;SDS011;61288;53.446;-2.266;2022-07-29T06:19:16;8.43;;;2.05;;
73100;SDS011;61288;53.446;-2.266;2022-07-29T06:21:45;7.32;;;2.05;;
73100;SDS011;61288;53.446;-2.266;2022-07-29T06:24:12;7.65;;;1.80;;
73100;SDS011;61288;53.446;-2.266;2022-07-29T06:26:39;6.57;;;1.90;;
73100;SDS011;61288;53.446;-2.266;2022-07-29T06:29:08;4.07;;;1.60;;
73100;SDS011;61288;53.446;-2.266;2022-07-29T06:31:38;4.75;;;1.70;;
73100;SDS011;61288;53.446;-2.266;2022-07-29T06:34:04;7.43;;;1.95;;
73100;SDS011;61288;53.446;-2.266;2022-07-29T06:36:30;7.20;;;1.90;;
73100;SDS011;61288;53.446;-2.266;2022-07-29T06:38:59;7.35;;;2.03;;
73100;SDS011;61288;53.446;-2.266;2022-07-29T06:41:25;7.63;;;2.00;;
73100;SDS011;61288;53.446;-2.266;2022-07-29T06:43:51;8.48;;;2.20;;
73100;SDS011;61288;53.446;-2.266;2022-07-29T06:46:17;7.32;;;2.20;;
73100;SDS011;61288;53.446;-2.266;2022-07-29T06:48:43;8.27;;;2.00;;
73100;SDS011;61288;53.446;-2.266;2022-07-29T06:51:10;9.25;;;2.28;;
73100;SDS011;61288;53.446;-2.266;2022-07-29T06:53:37;5.63;;;2.50;;
73100;SDS011;61288;53.446;-2.266;2022-07-29T06:56:03;7.35;;;2.28;;
73100;SDS011;61288;53.446;-2.266;2022-07-29T06:58:30;6.47;;;2.10;;
73100;SDS011;61288;53.446;-2.266;2022-07-29T07:00:57;6.10;;;2.03;;
73100;SDS011;61288;53.446;-2.266;2022-07-29T07:03:23;7.80;;;2.20;;
73100;SDS011;61288;53.446;-2.266;2022-07-29T07:05:51;6.10;;;2.00;;
73100;SDS011;61288;53.446;-2.266;2022-07-29T07:08:18;5.68;;;2.22;;
73100;SDS011;61288;53.446;-2.266;2022-07-29T07:10:45;5.70;;;1.85;;
73100;SDS011;61288;53.446;-2.266;2022-07-29T07:13:12;8.02;;;2.30;;
73100;SDS011;61288;53.446;-2.266;2022-07-29T07:15:38;8.18;;;2.50;;
73100;SDS011;61288;53.446;-2.266;2022-07-29T07:18:04;6.90;;;2.28;;
73100;SDS011;61288;53.446;-2.266;2022-07-29T07:20:31;8.38;;;2.25;;
73100;SDS011;61288;53.446;-2.266;2022-07-29T07:23:00;8.13;;;2.25;;
73100;SDS011;61288;53.446;-2.266;2022-07-29T07:25:26;7.60;;;2.42;;
73100;SDS011;61288;53.446;-2.266;2022-07-29T07:27:52;9.00;;;2.78;;
73100;SDS011;61288;53.446;-2.266;2022-07-29T07:30:18;8.05;;;2.70;;
73100;SDS011;61288;53.446;-2.266;2022-07-29T07:32:43;7.78;;;2.55;;
73100;SDS011;61288;53.446;-2.266;2022-07-29T07:35:09;10.73;;;2.67;;
73100;SDS011;61288;53.446;-2.266;2022-07-29T07:37:36;6.93;;;2.42;;
73100;SDS011;61288;53.446;-2.266;2022-07-29T07:40:02;7.88;;;2.20;;
73100;SDS011;61288;53.446;-2.266;2022-07-29T07:42:30;6.05;;;2.38;;
73100;SDS011;61288;53.446;-2.266;2022-07-29T07:44:56;8.82;;;2.63;;
73100;SDS011;61288;53.446;-2.266;2022-07-29T07:47:21;9.43;;;2.50;;
73100;SDS011;61288;53.446;-2.266;2022-07-29T07:49:49;11.38;;;2.15;;
73100;SDS011;61288;53.446;-2.266;2022-07-29T07:52:16;7.70;;;2.20;;
73100;SDS011;61288;53.446;-2.266;2022-07-29T07:54:45;6.65;;;2.22;;
73100;SDS011;61288;53.446;-2.266;2022-07-29T07:57:13;8.43;;;2.35;;
73100;SDS011;61288;53.446;-2.266;2022-07-29T07:59:40;7.88;;;2.53;;
73100;SDS011;61288;53.446;-2.266;2022-07-29T08:02:06;6.57;;;1.90;;
73100;SDS011;61288;53.446;-2.266;2022-07-29T08:04:32;9.77;;;2.40;;
73100;SDS011;61288;53.446;-2.266;2022-07-29T08:06:58;6.50;;;2.30;;
73100;SDS011;61288;53.446;-2.266;2022-07-29T08:09:24;7.38;;;2.50;;
73100;SDS011;61288;53.446;-2.266;2022-07-29T08:11:51;8.32;;;2.10;;
73100;SDS011;61288;53.446;-2.266;2022-07-29T08:14:17;8.35;;;2.20;;
73100;SDS011;61288;53.446;-2.266;2022-07-29T08:16:42;6.78;;;2.10;;
73100;SDS011;61288;53.446;-2.266;2022-07-29T08:19:08;7.03;;;2.10;;
73100;SDS011;61288;53.446;-2.266;2022-07-29T08:21:34;8.18;;;2.30;;
73100;SDS011;61288;53.446;-2.266;2022-07-29T08:24:01;6.18;;;1.85;;
73100;SDS011;61288;53.446;-2.266;2022-07-29T08:26:45;7.70;;;2.10;;
73100;SDS011;61288;53.446;-2.266;2022-07-29T08:29:12;7.80;;;1.95;;
73100;SDS011;61288;53.446;-2.266;2022-07-29T08:31:38;11.30;;;2.03;;
73100;SDS011;61288;53.446;-2.266;2022-07-29T08:34:04;6.90;;;1.98;;
73100;SDS011;61288;53.446;-2.266;2022-07-29T08:36:31;5.28;;;2.00;;
73100;SDS011;61288;53.446;-2.266;2022-07-29T08:38:58;7.47;;;1.90;;
73100;SDS011;61288;53.446;-2.266;2022-07-29T08:41:24;9.00;;;2.20;;
73100;SDS011;61288;53.446;-2.266;2022-07-29T08:43:51;7.47;;;2.08;;
73100;SDS011;61288;53.446;-2.266;2022-07-29T08:46:17;6.95;;;1.90;;
73100;SDS011;61288;53.446;-2.266;2022-07-29T08:48:44;7.97;;;2.20;;
73100;SDS011;61288;53.446;-2.266;2022-07-29T08:51:14;9.73;;;2.03;;
73100;SDS011;61288;53.446;-2.266;2022-07-29T08:53:42;8.13;;;2.45;;
73100;SDS011;61288;53.446;-2.266;2022-07-29T08:56:12;6.70;;;2.25;;
73100;SDS011;61288;53.446;-2.266;2022-07-29T08:58:44;6.88;;;2.17;;
73100;SDS011;61288;53.446;-2.266;2022-07-29T09:01:12;8.77;;;2.08;;
73100;SDS011;61288;53.446;-2.266;2022-07-29T09:03:41;7.30;;;3.05;;
73100;SDS011;61288;53.446;-2.266;2022-07-29T09:06:11;10.93;;;2.10;;
73100;SDS011;61288;53.446;-2.266;2022-07-29T09:08:39;6.90;;;1.85;;
73100;SDS011;61288;53.446;-2.266;2022-07-29T09:11:06;7.28;;;2.10;;
73100;SDS011;61288;53.446;-2.266;2022-07-29T09:13:33;7.32;;;2.20;;
73100;SDS011;61288;53.446;-2.266;2022-07-29T09:15:59;6.30;;;1.90;;
73100;SDS011;61288;53.446;-2.266;2022-07-29T09:18:36;7.03;;;2.10;;
73100;SDS011;61288;53.446;-2.266;2022-07-29T09:21:04;9.38;;;2.38;;
73100;SDS011;61288;53.446;-2.266;2022-07-29T09:26:33;7.18;;;2.30;;
73100;SDS011;61288;53.446;-2.266;2022-07-29T09:29:09;6.82;;;2.30;;
73100;SDS011;61288;53.446;-2.266;2022-07-29T09:31:37;7.30;;;1.88;;
73100;SDS011;61288;53.446;-2.266;2022-07-29T09:34:05;10.93;;;2.40;;
73100;SDS011;61288;53.446;-2.266;2022-07-29T09:36:38;8.30;;;2.50;;
73100;SDS011;61288;53.446;-2.266;2022-07-29T09:39:13;9.27;;;2.40;;
73100;SDS011;61288;53.446;-2.266;2022-07-29T09:41:50;9.10;;;2.35;;
73100;SDS011;61288;53.446;-2.266;2022-07-29T09:44:20;8.45;;;2.72;;
73100;SDS011;61288;53.446;-2.266;2022-07-29T09:49:33;9.55;;;2.20;;
73100;SDS011;61288;53.446;-2.266;2022-07-29T09:52:19;5.90;;;1.90;;
73100;SDS011;61288;53.446;-2.266;2022-07-29T09:54:45;8.43;;;1.92;;
73100;SDS011;61288;53.446;-2.266;2022-07-29T09:57:24;6.80;;;1.92;;
73100;SDS011;61288;53.446;-2.266;2022-07-29T10:02:27;8.77;;;2.00;;
73100;SDS011;61288;53.446;-2.266;2022-07-29T10:04:54;7.68;;;1.80;;
73100;SDS011;61288;53.446;-2.266;2022-07-29T10:07:20;7.93;;;2.00;;
73100;SDS011;61288;53.446;-2.266;2022-07-29T10:09:51;8.90;;;2.25;;
73100;SDS011;61288;53.446;-2.266;2022-07-29T10:12:19;7.72;;;1.98;;
73100;SDS011;61288;53.446;-2.266;2022-07-29T10:14:45;7.75;;;1.95;;
73100;SDS011;61288;53.446;-2.266;2022-07-29T10:17:11;6.78;;;1.98;;
73100;SDS011;61288;53.446;-2.266;2022-07-29T10:19:37;6.70;;;1.83;;
73100;SDS011;61288;53.446;-2.266;2022-07-29T10:22:07;7.57;;;2.20;;
73100;SDS011;61288;53.446;-2.266;2022-07-29T10:24:35;5.32;;;1.85;;
73100;SDS011;61288;53.446;-2.266;2022-07-29T10:27:03;8.35;;;2.00;;
73100;SDS011;61288;53.446;-2.266;2022-07-29T10:29:31;7.75;;;1.98;;
73100;SDS011;61288;53.446;-2.266;2022-07-29T10:37:58;8.43;;;1.92;;
73100;SDS011;61288;53.446;-2.266;2022-07-29T10:43:37;6.90;;;2.03;;
73100;SDS011;61288;53.446;-2.266;2022-07-29T10:46:07;5.72;;;1.80;;
73100;SDS011;61288;53.446;-2.266;2022-07-29T10:48:34;8.27;;;2.08;;
73100;SDS011;61288;53.446;-2.266;2022-07-29T10:51:01;7.10;;;2.08;;
73100;SDS011;61288;53.446;-2.266;2022-07-29T10:56:28;6.82;;;1.88;;
73100;SDS011;61288;53.446;-2.266;2022-07-29T11:01:44;8.20;;;2.03;;
73100;SDS011;61288;53.446;-2.266;2022-07-29T11:04:11;4.50;;;1.75;;
73100;SDS011;61288;53.446;-2.266;2022-07-29T11:09:27;7.25;;;2.00;;
73100;SDS011;61288;53.446;-2.266;2022-07-29T11:11:59;8.57;;;2.30;;
73100;SDS011;61288;53.446;-2.266;2022-07-29T11:17:26;10.65;;;2.50;;
73100;SDS011;61288;53.446;-2.266;2022-07-29T11:20:30;13.48;;;2.70;;
73100;SDS011;61288;53.446;-2.266;2022-07-29T11:22:56;9.15;;;2.80;;
73100;SDS011;61288;53.446;-2.266;2022-07-29T11:25:23;8.45;;;2.90;;
73100;SDS011;61288;53.446;-2.266;2022-07-29T11:27:49;8.63;;;2.47;;
73100;SDS011;61288;53.446;-2.266;2022-07-29T11:30:20;12.32;;;2.90;;
73100;SDS011;61288;53.446;-2.266;2022-07-29T11:32:46;12.60;;;3.03;;
73100;SDS011;61288;53.446;-2.266;2022-07-29T11:35:20;9.23;;;2.78;;
73100;SDS011;61288;53.446;-2.266;2022-07-29T11:43:51;10.55;;;2.50;;
73100;SDS011;61288;53.446;-2.266;2022-07-29T11:49:19;10.30;;;2.78;;
73100;SDS011;61288;53.446;-2.266;2022-07-29T11:51:57;9.02;;;3.20;;
73100;SDS011;61288;53.446;-2.266;2022-07-29T11:54:32;9.85;;;2.55;;
73100;SDS011;61288;53.446;-2.266;2022-07-29T11:56:59;10.75;;;2.97;;
73100;SDS011;61288;53.446;-2.266;2022-07-29T11:59:29;7.18;;;2.70;;
73100;SDS011;61288;53.446;-2.266;2022-07-29T12:01:55;8.48;;;2.72;;
73100;SDS011;61288;53.446;-2.266;2022-07-29T12:04:23;7.93;;;3.55;;
73100;SDS011;61288;53.446;-2.266;2022-07-29T12:06:53;8.95;;;3.08;;
73100;SDS011;61288;53.446;-2.266;2022-07-29T12:09:20;7.90;;;2.95;;
73100;SDS011;61288;53.446;-2.266;2022-07-29T12:11:47;10.38;;;3.08;;
73100;SDS011;61288;53.446;-2.266;2022-07-29T12:14:29;8.57;;;3.47;;
73100;SDS011;61288;53.446;-2.266;2022-07-29T12:16:56;11.38;;;3.50;;
73100;SDS011;61288;53.446;-2.266;2022-07-29T12:19:22;8.82;;;2.97;;
73100;SDS011;61288;53.446;-2.266;2022-07-29T12:21:52;8.70;;;2.60;;
73100;SDS011;61288;53.446;-2.266;2022-07-29T12:24:19;10.50;;;3.20;;
73100;SDS011;61288;53.446;-2.266;2022-07-29T12:26:50;12.18;;;3.60;;
73100;SDS011;61288;53.446;-2.266;2022-07-29T12:29:17;8.65;;;2.65;;
73100;SDS011;61288;53.446;-2.266;2022-07-29T12:31:44;7.03;;;2.53;;
73100;SDS011;61288;53.446;-2.266;2022-07-29T12:34:12;9.32;;;3.10;;
73100;SDS011;61288;53.446;-2.266;2022-07-29T12:36:41;11.50;;;3.03;;
73100;SDS011;61288;53.446;-2.266;2022-07-29T12:39:09;8.95;;;3.22;;
73100;SDS011;61288;53.446;-2.266;2022-07-29T12:41:36;9.95;;;2.65;;
73100;SDS011;61288;53.446;-2.266;2022-07-29T12:44:02;9.40;;;2.72;;
73100;SDS011;61288;53.446;-2.266;2022-07-29T12:46:28;10.68;;;2.90;;
73100;SDS011;61288;53.446;-2.266;2022-07-29T12:48:54;12.00;;;3.33;;
73100;SDS011;61288;53.446;-2.266;2022-07-29T12:51:28;10.25;;;3.53;;
73100;SDS011;61288;53.446;-2.266;2022-07-29T12:54:06;7.60;;;2.78;;
73100;SDS011;61288;53.446;-2.266;2022-07-29T12:56:32;12.85;;;3.53;;
73100;SDS011;61288;53.446;-2.266;2022-07-29T12:58:59;9.50;;;3.05;;
73100;SDS011;61288;53.446;-2.266;2022-07-29T13:01:36;10.48;;;2.95;;
73100;SDS011;61288;53.446;-2.266;2022-07-29T13:04:02;11.45;;;3.50;;
73100;SDS011;61288;53.446;-2.266;2022-07-29T13:09:06;19.20;;;3.78;;
73100;SDS011;61288;53.446;-2.266;2022-07-29T13:14:10;11.38;;;3.03;;
73100;SDS011;61288;53.446;-2.266;2022-07-29T13:16:59;10.10;;;3.10;;
73100;SDS011;61288;53.446;-2.266;2022-07-29T13:19:34;10.90;;;3.05;;
73100;SDS011;61288;53.446;-2.266;2022-07-29T13:22:05;10.55;;;3.17;;
73100;SDS011;61288;53.446;-2.266;2022-07-29T13:24:33;10.65;;;3.28;;
73100;SDS011;61288;53.446;-2.266;2022-07-29T13:26:59;7.72;;;2.72;;
73100;SDS011;61288;53.446;-2.266;2022-07-29T13:29:25;9.13;;;3.08;;
73100;SDS011;61288;53.446;-2.266;2022-07-29T13:31:51;9.95;;;3.33;;
73100;SDS011;61288;53.446;-2.266;2022-07-29T13:34:17;10.02;;;3.30;;
73100;SDS011;61288;53.446;-2.266;2022-07-29T13:36:45;10.40;;;3.40;;
73100;SDS011;61288;53.446;-2.266;2022-07-29T13:39:11;11.18;;;3.30;;
73100;SDS011;61288;53.446;-2.266;2022-07-29T13:41:37;10.10;;;2.92;;
73100;SDS011;61288;53.446;-2.266;2022-07-29T13:44:03;6.60;;;2.72;;
73100;SDS011;61288;53.446;-2.266;2022-07-29T13:46:28;11.50;;;3.17;;
73100;SDS011;61288;53.446;-2.266;2022-07-29T13:48:54;10.63;;;3.22;;
73100;SDS011;61288;53.446;-2.266;2022-07-29T13:51:19;11.95;;;3.03;;
73100;SDS011;61288;53.446;-2.266;2022-07-29T13:53:45;9.75;;;3.20;;
73100;SDS011;61288;53.446;-2.266;2022-07-29T13:56:11;11.68;;;3.00;;
73100;SDS011;61288;53.446;-2.266;2022-07-29T13:58:36;10.98;;;3.20;;
73100;SDS011;61288;53.446;-2.266;2022-07-29T14:01:02;9.88;;;3.50;;
73100;SDS011;61288;53.446;-2.266;2022-07-29T14:03:28;14.95;;;3.90;;
73100;SDS011;61288;53.446;-2.266;2022-07-29T14:06:01;11.35;;;3.53;;
73100;SDS011;61288;53.446;-2.266;2022-07-29T14:08:27;9.30;;;2.70;;
73100;SDS011;61288;53.446;-2.266;2022-07-29T14:10:53;9.80;;;3.20;;
73100;SDS011;61288;53.446;-2.266;2022-07-29T14:13:19;10.95;;;3.42;;
73100;SDS011;61288;53.446;-2.266;2022-07-29T14:15:44;10.63;;;3.83;;
73100;SDS011;61288;53.446;-2.266;2022-07-29T14:18:10;10.15;;;3.20;;
73100;SDS011;61288;53.446;-2.266;2022-07-29T14:20:36;11.55;;;3.30;;
73100;SDS011;61288;53.446;-2.266;2022-07-29T14:23:01;13.20;;;3.90;;
73100;SDS011;61288;53.446;-2.266;2022-07-29T14:25:27;10.32;;;3.42;;
73100;SDS011;61288;53.446;-2.266;2022-07-29T14:27:53;11.68;;;3.90;;
73100;SDS011;61288;53.446;-2.266;2022-07-29T14:30:19;12.10;;;3.85;;
73100;SDS011;61288;53.446;-2.266;2022-07-29T14:32:45;11.48;;;4.10;;
73100;SDS011;61288;53.446;-2.266;2022-07-29T14:35:11;13.75;;;3.58;;
73100;SDS011;61288;53.446;-2.266;2022-07-29T14:37:36;11.88;;;3.60;;
73100;SDS011;61288;53.446;-2.266;2022-07-29T14:40:03;11.30;;;3.92;;
73100;SDS011;61288;53.446;-2.266;2022-07-29T14:42:29;11.30;;;3.25;;
73100;SDS011;61288;53.446;-2.266;2022-07-29T14:44:58;10.63;;;3.67;;
73100;SDS011;61288;53.446;-2.266;2022-07-29T14:47:23;10.05;;;3.67;;
73100;SDS011;61288;53.446;-2.266;2022-07-29T14:49:49;11.88;;;3.58;;
73100;SDS011;61288;53.446;-2.266;2022-07-29T14:52:15;10.13;;;3.45;;
73100;SDS011;61288;53.446;-2.266;2022-07-29T14:54:40;10.05;;;3.80;;
73100;SDS011;61288;53.446;-2.266;2022-07-29T14:57:07;10.48;;;3.70;;
73100;SDS011;61288;53.446;-2.266;2022-07-29T14:59:33;13.23;;;3.75;;
73100;SDS011;61288;53.446;-2.266;2022-07-29T15:02:00;12.45;;;3.65;;
73100;SDS011;61288;53.446;-2.266;2022-07-29T15:04:26;10.65;;;4.00;;
73100;SDS011;61288;53.446;-2.266;2022-07-29T15:06:51;11.18;;;3.67;;
73100;SDS011;61288;53.446;-2.266;2022-07-29T15:09:17;9.88;;;3.33;;
73100;SDS011;61288;53.446;-2.266;2022-07-29T15:11:43;10.07;;;3.72;;
73100;SDS011;61288;53.446;-2.266;2022-07-29T15:14:09;9.55;;;3.92;;
73100;SDS011;61288;53.446;-2.266;2022-07-29T15:16:38;10.73;;;3.88;;
73100;SDS011;61288;53.446;-2.266;2022-07-29T15:19:07;11.05;;;3.92;;
73100;SDS011;61288;53.446;-2.266;2022-07-29T15:21:34;9.50;;;3.50;;
73100;SDS011;61288;53.446;-2.266;2022-07-29T15:24:00;11.57;;;3.10;;
73100;SDS011;61288;53.446;-2.266;2022-07-29T15:26:26;7.95;;;3.08;;